Time;durP1;ratioP1;P1;durP2;ratioP2;P2;SDS_P1;SDS_P2;PMS_P1;PMS_P2;Temp;Humidity;BMP_temperature;BMP_pressure;BME280_temperature;BME280_humidity;BME280_pressure;Samples;Min_cycle;Max_cycle;Signal;HPM_P1;HPM_P2
2023/02/02 00:01:41;;;;;;;4.70;2.50;;;7.00;99.90;;;;;;4996377;28;20224;-65
2023/02/02 00:04:08;;;;;;;3.22;2.10;;;7.10;99.90;;;;;;5016371;28;20178;-65
2023/02/02 00:06:33;;;;;;;13.48;2.58;;;6.50;99.90;;;;;;5018226;28;20874;-65
2023/02/02 00:09:00;;;;;;;9.90;1.90;;;6.90;99.90;;;;;;5017506;28;20183;-65
2023/02/02 00:11:27;;;;;;;5.28;1.75;;;7.10;99.90;;;;;;4997146;28;20183;-65
2023/02/02 00:13:53;;;;;;;4.63;1.70;;;7.30;99.90;;;;;;5019256;28;20208;-65
2023/02/02 00:16:25;;;;;;;4.82;1.95;;;6.70;99.90;;;;;;5017726;28;20205;-65
2023/02/02 00:18:51;;;;;;;3.85;2.45;;;7.20;99.90;;;;;;5016079;28;20186;-65
2023/02/02 00:21:17;;;;;;;4.10;1.98;;;7.00;99.90;;;;;;4996577;28;20294;-65
2023/02/02 00:23:42;;;;;;;5.03;1.67;;;7.40;99.90;;;;;;5014614;28;20290;-65
2023/02/02 00:26:08;;;;;;;3.17;1.70;;;7.70;99.90;;;;;;5007940;28;20233;-65
2023/02/02 00:28:34;;;;;;;6.43;1.97;;;7.20;99.90;;;;;;5019964;28;20194;-65
2023/02/02 00:30:59;;;;;;;4.33;2.03;;;7.30;99.90;;;;;;5020429;28;20806;-65
2023/02/02 00:33:25;;;;;;;2.70;1.97;;;7.10;99.90;;;;;;5018411;28;20814;-65
2023/02/02 00:35:54;;;;;;;5.27;2.23;;;7.80;99.90;;;;;;4996381;28;20298;-65
2023/02/02 00:38:19;;;;;;;4.57;2.20;;;7.40;99.90;;;;;;5012360;28;20178;-65
2023/02/02 00:40:45;;;;;;;7.43;2.03;;;6.70;99.90;;;;;;5017928;28;20240;-65
2023/02/02 00:43:11;;;;;;;10.93;2.23;;;7.40;99.90;;;;;;5017894;28;20193;-65
2023/02/02 00:45:37;;;;;;;4.53;2.60;;;7.10;99.90;;;;;;5012857;28;20379;-65
2023/02/02 00:48:04;;;;;;;5.85;2.20;;;7.20;99.90;;;;;;4995383;28;20182;-65
2023/02/02 00:50:30;;;;;;;6.90;1.90;;;7.30;99.90;;;;;;5015588;28;20182;-65
2023/02/02 00:52:59;;;;;;;4.20;1.70;;;7.60;99.90;;;;;;5012722;28;20296;-65
2023/02/02 00:55:25;;;;;;;4.90;2.00;;;7.50;99.90;;;;;;5014994;28;20206;-66
2023/02/02 00:57:51;;;;;;;4.85;1.80;;;7.60;99.90;;;;;;5015591;28;20182;-66
2023/02/02 01:00:22;;;;;;;2.08;1.60;;;7.30;99.90;;;;;;5017501;28;20272;-66
2023/02/02 01:02:48;;;;;;;8.07;2.40;;;7.20;99.90;;;;;;5018369;28;20934;-66
2023/02/02 01:05:15;;;;;;;3.80;2.40;;;7.60;99.90;;;;;;5018759;28;20771;-66
2023/02/02 01:07:41;;;;;;;7.43;2.50;;;7.40;99.90;;;;;;5015864;28;20655;-66
2023/02/02 01:10:11;;;;;;;7.23;2.57;;;7.50;99.90;;;;;;5016844;28;20186;-65
2023/02/02 01:12:36;;;;;;;2.63;1.65;;;7.40;99.90;;;;;;5018128;28;20955;-66
2023/02/02 01:15:03;;;;;;;5.27;1.70;;;7.70;99.90;;;;;;5019787;28;20195;-66
2023/02/02 01:17:28;;;;;;;8.00;1.85;;;7.60;99.90;;;;;;5017266;28;20742;-66
2023/02/02 01:19:54;;;;;;;3.57;2.00;;;7.50;99.90;;;;;;5015677;28;20194;-65
2023/02/02 01:22:19;;;;;;;3.40;1.67;;;7.60;99.90;;;;;;5023114;28;20475;-66
2023/02/02 01:24:45;;;;;;;5.00;1.93;;;7.60;99.90;;;;;;5012569;28;20218;-65
2023/02/02 01:27:11;;;;;;;4.30;1.63;;;7.60;99.90;;;;;;5016893;28;20279;-66
2023/02/02 01:29:36;;;;;;;3.70;1.83;;;7.50;99.90;;;;;;5013678;28;20533;-66
2023/02/02 01:32:02;;;;;;;4.70;1.73;;;7.60;99.90;;;;;;5014015;28;20182;-66
2023/02/02 01:34:28;;;;;;;2.73;1.87;;;7.40;99.90;;;;;;5015561;28;20292;-68
2023/02/02 01:36:53;;;;;;;2.67;1.60;;;7.40;99.90;;;;;;5013340;28;20830;-66
2023/02/02 01:39:19;;;;;;;3.13;1.30;;;7.40;99.90;;;;;;5015849;28;20270;-66
2023/02/02 01:41:44;;;;;;;3.90;1.70;;;7.70;99.90;;;;;;5015575;28;20187;-66
2023/02/02 01:44:48;;;;;;;3.13;1.60;;;7.40;99.90;;;;;;5003390;28;20273;-66
2023/02/02 01:47:13;;;;;;;4.53;2.00;;;7.40;99.90;;;;;;5020381;28;20221;-66
2023/02/02 01:49:40;;;;;;;3.23;1.90;;;7.50;99.90;;;;;;4996622;28;20549;-66
2023/02/02 01:52:08;;;;;;;3.30;1.65;;;7.30;99.90;;;;;;5017161;28;20969;-66
2023/02/02 01:54:47;;;;;;;3.15;1.90;;;7.40;99.90;;;;;;5017772;28;20671;-66
2023/02/02 01:57:12;;;;;;;5.40;1.65;;;7.30;99.90;;;;;;5017281;28;20215;-66
2023/02/02 01:59:38;;;;;;;3.87;1.40;;;7.40;99.90;;;;;;5025805;28;20205;-65
2023/02/02 02:02:05;;;;;;;4.85;1.80;;;7.30;99.90;;;;;;5019493;28;20667;-63
2023/02/02 02:04:31;;;;;;;2.58;1.80;;;7.00;99.90;;;;;;5020877;28;20191;-66
2023/02/02 02:06:59;;;;;;;1.95;1.40;;;7.40;99.90;;;;;;5020288;28;20673;-66
2023/02/02 02:09:25;;;;;;;2.00;1.60;;;7.20;99.90;;;;;;5024570;28;20186;-65
2023/02/02 02:11:52;;;;;;;1.93;1.27;;;7.50;99.90;;;;;;5018876;28;20194;-65
2023/02/02 02:17:38;;;;;;;3.10;1.30;;;7.30;99.90;;;;;;5021647;28;20770;-65
2023/02/02 02:26:37;;;;;;;3.20;1.60;;;7.00;99.90;;;;;;5020912;28;20221;-65
2023/02/02 02:29:31;;;;;;;2.47;1.50;;;7.30;99.90;;;;;;5019436;28;20212;-66
2023/02/02 02:32:07;;;;;;;3.28;1.70;;;7.20;99.90;;;;;;5020232;28;20193;-66
2023/02/02 02:34:44;;;;;;;2.03;1.20;;;7.50;99.90;;;;;;5022675;28;20237;-66
2023/02/02 02:37:21;;;;;;;5.60;1.63;;;7.10;99.90;;;;;;5014249;28;20769;-66
2023/02/02 02:40:12;;;;;;;5.85;1.88;;;7.20;99.90;;;;;;5018576;28;20200;-66
2023/02/02 02:42:44;;;;;;;2.17;1.10;;;7.30;99.90;;;;;;5020468;28;20190;-66
2023/02/02 02:45:11;;;;;;;4.40;1.98;;;7.50;99.90;;;;;;5017628;28;20206;-66
2023/02/02 02:47:38;;;;;;;2.20;1.30;;;7.20;99.90;;;;;;5016668;28;20210;-66
2023/02/02 02:50:04;;;;;;;6.07;1.48;;;7.30;99.90;;;;;;5004843;28;20229;-66
2023/02/02 02:52:32;;;;;;;4.65;1.65;;;7.40;99.90;;;;;;5018449;28;20183;-66
2023/02/02 02:55:00;;;;;;;3.15;2.00;;;7.20;99.90;;;;;;5023456;28;20187;-66
2023/02/02 02:57:57;;;;;;;2.85;1.58;;;7.00;99.90;;;;;;5019498;28;20232;-65
2023/02/02 03:00:40;;;;;;;2.70;1.35;;;7.50;99.90;;;;;;5017559;28;20191;-66
2023/02/02 03:03:44;;;;;;;3.63;1.58;;;7.20;99.90;;;;;;5019024;28;20191;-66
2023/02/02 03:06:21;;;;;;;2.80;1.17;;;7.40;99.90;;;;;;4999806;28;20728;-66
2023/02/02 03:09:21;;;;;;;6.75;1.40;;;7.40;99.90;;;;;;5018286;28;20723;-66
2023/02/02 03:11:46;;;;;;;4.15;1.75;;;7.30;99.90;;;;;;5006250;28;20209;-66
2023/02/02 03:14:12;;;;;;;3.53;1.50;;;7.50;99.90;;;;;;5012923;28;20187;-66
2023/02/02 03:16:38;;;;;;;3.30;1.30;;;7.00;99.90;;;;;;5021830;28;20206;-66
2023/02/02 03:19:05;;;;;;;2.00;1.50;;;7.50;99.90;;;;;;5019136;28;20193;-66
2023/02/02 03:21:31;;;;;;;1.55;1.30;;;7.80;99.90;;;;;;5020376;28;20431;-66
2023/02/02 03:23:57;;;;;;;2.05;1.15;;;7.40;99.90;;;;;;5018103;28;20202;-66
2023/02/02 03:26:23;;;;;;;1.47;1.23;;;7.60;99.90;;;;;;5017930;28;20625;-66
2023/02/02 03:28:50;;;;;;;4.80;1.60;;;7.50;99.90;;;;;;5011363;28;20464;-66
2023/02/02 03:31:15;;;;;;;1.58;1.20;;;7.50;99.90;;;;;;5020830;28;20667;-65
2023/02/02 03:33:41;;;;;;;1.60;1.23;;;7.40;99.90;;;;;;5016234;28;20286;-66
2023/02/02 03:36:07;;;;;;;3.90;1.07;;;7.50;99.90;;;;;;5020022;28;20832;-66
2023/02/02 03:38:33;;;;;;;1.85;1.08;;;7.60;99.90;;;;;;5020207;28;20561;-65
2023/02/02 03:40:58;;;;;;;2.33;1.10;;;7.60;99.90;;;;;;5015718;28;20187;-66
2023/02/02 03:43:24;;;;;;;1.87;1.07;;;7.40;99.90;;;;;;5020064;28;20197;-65
2023/02/02 03:46:03;;;;;;;2.57;2.00;;;6.90;99.90;;;;;;5023011;28;20222;-66
2023/02/02 03:48:29;;;;;;;2.38;1.00;;;7.50;99.90;;;;;;5019588;28;20187;-65
2023/02/02 03:50:55;;;;;;;1.40;1.05;;;7.60;99.90;;;;;;5003980;28;20232;-66
2023/02/02 03:53:21;;;;;;;0.97;0.70;;;7.40;99.90;;;;;;5014902;28;20269;-65
2023/02/02 03:55:47;;;;;;;1.30;1.02;;;7.40;99.90;;;;;;5019377;28;20472;-66
2023/02/02 03:58:12;;;;;;;1.20;1.10;;;7.50;99.90;;;;;;5018112;28;20206;-66
2023/02/02 04:00:38;;;;;;;2.83;2.20;;;7.60;99.90;;;;;;5016452;28;20215;-66
2023/02/02 04:03:03;;;;;;;2.17;1.00;;;7.50;99.90;;;;;;5002183;28;20191;-66
2023/02/02 04:05:29;;;;;;;1.13;1.00;;;7.70;99.90;;;;;;5020596;28;20215;-65
2023/02/02 04:07:54;;;;;;;3.20;1.83;;;7.70;99.90;;;;;;5018310;28;20675;-67
2023/02/02 04:10:20;;;;;;;1.97;0.97;;;7.80;99.90;;;;;;5017897;28;20214;-66
2023/02/02 04:12:46;;;;;;;1.50;1.00;;;7.60;99.90;;;;;;5022054;28;20187;-66
2023/02/02 04:15:11;;;;;;;1.10;1.00;;;7.40;99.90;;;;;;5019526;28;20494;-66
2023/02/02 04:17:37;;;;;;;2.77;1.07;;;7.40;99.90;;;;;;5019885;28;20186;-66
2023/02/02 04:20:05;;;;;;;1.47;1.10;;;7.60;99.90;;;;;;4999903;28;20313;-66
2023/02/02 04:22:31;;;;;;;2.25;1.23;;;7.70;99.90;;;;;;5017477;28;20953;-66
2023/02/02 04:24:57;;;;;;;1.00;0.90;;;7.50;99.90;;;;;;5019312;28;20214;-66
2023/02/02 04:27:22;;;;;;;1.73;1.20;;;7.40;99.90;;;;;;5020028;28;20224;-66
2023/02/02 04:29:48;;;;;;;1.90;1.23;;;7.60;99.90;;;;;;5015350;28;20213;-65
2023/02/02 04:32:15;;;;;;;1.80;0.93;;;7.60;99.90;;;;;;5021045;28;20996;-65
2023/02/02 04:34:41;;;;;;;1.55;1.08;;;7.80;99.90;;;;;;5016719;28;20671;-66
2023/02/02 04:37:06;;;;;;;1.97;1.40;;;7.70;99.90;;;;;;5014956;28;20292;-65
2023/02/02 04:39:32;;;;;;;3.40;1.20;;;7.20;99.90;;;;;;5017456;28;20558;-65
2023/02/02 04:41:57;;;;;;;2.27;1.43;;;7.50;99.90;;;;;;5018244;28;20662;-66
2023/02/02 04:44:23;;;;;;;3.80;2.00;;;7.70;99.90;;;;;;5015346;28;20219;-66
2023/02/02 04:46:48;;;;;;;5.13;1.53;;;7.70;99.90;;;;;;5020658;28;20226;-66
2023/02/02 04:49:14;;;;;;;2.20;1.03;;;7.80;99.90;;;;;;5018121;28;20613;-66
2023/02/02 04:51:40;;;;;;;1.63;1.17;;;7.50;99.90;;;;;;5002286;28;20312;-66
2023/02/02 04:54:06;;;;;;;2.97;1.48;;;7.60;99.90;;;;;;5017961;28;20191;-66
2023/02/02 04:56:33;;;;;;;2.28;1.40;;;7.60;99.90;;;;;;5022227;28;20218;-65
2023/02/02 04:58:58;;;;;;;3.25;1.38;;;7.40;99.90;;;;;;5016428;28;20183;-66
2023/02/02 05:01:24;;;;;;;2.40;1.00;;;7.50;99.90;;;;;;5019506;28;20207;-66
2023/02/02 05:03:50;;;;;;;2.75;1.40;;;7.80;99.90;;;;;;5015494;28;20198;-66
2023/02/02 05:06:18;;;;;;;2.60;1.35;;;7.50;99.90;;;;;;5015980;28;20268;-65
2023/02/02 05:08:44;;;;;;;3.53;2.22;;;7.10;99.90;;;;;;5018536;28;20263;-66
2023/02/02 05:11:15;;;;;;;1.47;1.00;;;7.60;99.90;;;;;;5017447;28;20274;-66
2023/02/02 05:13:45;;;;;;;1.40;1.25;;;7.70;99.90;;;;;;5015755;28;21012;-66
2023/02/02 05:16:11;;;;;;;4.65;1.70;;;7.50;99.90;;;;;;5003366;28;20679;-66
2023/02/02 05:18:36;;;;;;;2.27;1.73;;;7.80;99.90;;;;;;5022410;28;20182;-66
2023/02/02 05:21:02;;;;;;;1.87;1.60;;;7.90;99.90;;;;;;5015705;28;20190;-66
2023/02/02 05:23:29;;;;;;;3.30;1.33;;;7.70;99.90;;;;;;5020150;28;20213;-65
2023/02/02 05:25:55;;;;;;;4.40;1.48;;;8.00;99.90;;;;;;5022316;28;20501;-66
2023/02/02 05:28:21;;;;;;;2.67;1.45;;;7.80;99.90;;;;;;5021090;28;20187;-66
2023/02/02 05:30:47;;;;;;;2.45;1.48;;;7.50;99.90;;;;;;5011752;28;20179;-66
2023/02/02 05:33:13;;;;;;;2.78;1.55;;;7.80;99.90;;;;;;5019474;28;20199;-66
2023/02/02 05:35:39;;;;;;;2.53;1.50;;;7.90;99.90;;;;;;5017335;28;20276;-66
2023/02/02 05:38:04;;;;;;;2.60;1.60;;;8.10;99.90;;;;;;5003079;28;20460;-66
2023/02/02 05:40:30;;;;;;;2.30;1.70;;;7.10;99.90;;;;;;5021718;28;20178;-65
2023/02/02 05:42:55;;;;;;;3.20;1.50;;;7.70;99.90;;;;;;5017908;28;20195;-66
2023/02/02 05:45:22;;;;;;;2.53;1.70;;;7.90;99.90;;;;;;5021136;28;20203;-66
2023/02/02 05:47:48;;;;;;;4.90;1.90;;;7.30;99.90;;;;;;5021179;28;20243;-66
2023/02/02 05:50:13;;;;;;;4.33;1.30;;;7.70;99.90;;;;;;5020881;28;20274;-66
2023/02/02 05:52:40;;;;;;;2.50;1.70;;;7.80;99.90;;;;;;5014922;28;20426;-65
2023/02/02 05:55:06;;;;;;;2.75;1.80;;;7.60;99.90;;;;;;5022606;28;20297;-65
2023/02/02 05:57:32;;;;;;;2.95;1.70;;;7.80;99.90;;;;;;5020886;28;20272;-65
2023/02/02 05:59:58;;;;;;;3.20;1.80;;;7.60;99.90;;;;;;5003149;28;20248;-65
2023/02/02 06:02:23;;;;;;;5.33;1.60;;;7.70;99.90;;;;;;5021462;28;20186;-65
2023/02/02 06:04:49;;;;;;;3.30;1.50;;;7.90;99.90;;;;;;5017331;28;20871;-65
2023/02/02 06:07:14;;;;;;;5.50;2.63;;;7.90;99.90;;;;;;5018831;28;20324;-65
2023/02/02 06:09:40;;;;;;;2.83;1.53;;;7.40;99.90;;;;;;5020156;28;20178;-66
2023/02/02 06:12:06;;;;;;;1.73;1.43;;;7.70;99.90;;;;;;5022374;28;20187;-65
2023/02/02 06:14:31;;;;;;;4.22;2.00;;;7.70;99.90;;;;;;5024308;28;20667;-65
2023/02/02 06:16:57;;;;;;;3.00;1.90;;;7.70;99.90;;;;;;5009493;28;20210;-65
2023/02/02 06:19:22;;;;;;;4.03;2.03;;;8.20;99.90;;;;;;5013596;28;20195;-65
2023/02/02 06:21:48;;;;;;;6.53;1.80;;;7.00;99.90;;;;;;5023053;28;20200;-65
2023/02/02 06:24:14;;;;;;;3.90;2.07;;;7.70;99.90;;;;;;5005898;28;20188;-65
2023/02/02 06:26:39;;;;;;;3.10;1.70;;;7.70;99.90;;;;;;5027023;28;20218;-65
2023/02/02 06:29:05;;;;;;;5.27;3.33;;;7.80;99.90;;;;;;5017247;28;20193;-66
2023/02/02 06:31:32;;;;;;;2.38;1.75;;;7.80;99.90;;;;;;5022683;28;20194;-66
2023/02/02 06:33:58;;;;;;;5.47;2.53;;;7.70;99.90;;;;;;5021413;28;20191;-65
2023/02/02 06:36:26;;;;;;;5.32;3.28;;;7.20;99.90;;;;;;5018846;28;20206;-66
2023/02/02 06:38:54;;;;;;;6.90;2.88;;;7.90;99.90;;;;;;5021983;28;20186;-65
2023/02/02 06:41:20;;;;;;;5.95;2.45;;;7.50;99.90;;;;;;5017470;28;20221;-66
2023/02/02 06:43:47;;;;;;;4.63;2.35;;;7.90;99.90;;;;;;5021602;28;20196;-65
2023/02/02 06:46:13;;;;;;;5.53;1.95;;;7.70;99.90;;;;;;5015993;28;20222;-66
2023/02/02 06:48:39;;;;;;;4.10;2.40;;;7.70;99.90;;;;;;5027198;28;20194;-64
2023/02/02 06:51:05;;;;;;;3.90;2.30;;;7.80;99.90;;;;;;5008932;28;20182;-65
2023/02/02 06:53:31;;;;;;;2.75;2.03;;;7.70;99.90;;;;;;5021464;28;20189;-65
2023/02/02 06:56:00;;;;;;;4.28;2.40;;;7.60;99.90;;;;;;5008897;28;20308;-65
2023/02/02 06:58:26;;;;;;;4.13;2.10;;;7.60;99.90;;;;;;5022116;28;20197;-65
2023/02/02 07:00:52;;;;;;;6.45;2.05;;;8.00;99.90;;;;;;5013136;28;20186;-68
2023/02/02 07:03:20;;;;;;;4.20;2.30;;;7.80;99.90;;;;;;4999214;28;20248;-67
2023/02/02 07:05:47;;;;;;;2.80;2.22;;;7.90;99.90;;;;;;5020011;28;20507;-67
2023/02/02 07:08:13;;;;;;;3.15;1.88;;;7.90;99.90;;;;;;5018770;28;20187;-67
2023/02/02 07:10:39;;;;;;;4.28;1.52;;;8.00;99.90;;;;;;4996588;28;20660;-68
2023/02/02 07:13:05;;;;;;;4.37;2.60;;;7.90;99.90;;;;;;5018462;28;20209;-67
2023/02/02 07:15:32;;;;;;;7.05;3.50;;;8.20;99.90;;;;;;5020891;28;20475;-67
2023/02/02 07:17:58;;;;;;;3.85;1.83;;;7.80;99.90;;;;;;5014902;28;20195;-67
2023/02/02 07:20:24;;;;;;;2.10;1.60;;;8.00;99.90;;;;;;5021906;28;20202;-67
2023/02/02 07:22:49;;;;;;;2.20;1.60;;;8.30;99.90;;;;;;5019642;28;20446;-65
2023/02/02 07:25:15;;;;;;;4.60;1.90;;;8.00;99.90;;;;;;5018347;28;20202;-67
2023/02/02 07:27:41;;;;;;;2.10;1.57;;;7.60;99.90;;;;;;5015782;28;20206;-67
2023/02/02 07:30:07;;;;;;;2.20;1.40;;;7.80;99.90;;;;;;5012458;28;20183;-66
2023/02/02 07:32:33;;;;;;;1.88;1.73;;;8.00;99.90;;;;;;5014948;28;20187;-68
2023/02/02 07:34:58;;;;;;;2.20;1.80;;;8.10;99.90;;;;;;5016180;28;20607;-68
2023/02/02 07:37:24;;;;;;;5.17;1.67;;;8.10;99.90;;;;;;5009020;28;20214;-67
2023/02/02 07:39:49;;;;;;;2.60;1.83;;;8.00;99.90;;;;;;5016874;28;20182;-67
2023/02/02 07:42:15;;;;;;;4.23;1.73;;;8.10;99.90;;;;;;5013014;28;20662;-67
2023/02/02 07:44:40;;;;;;;2.03;1.30;;;8.30;99.90;;;;;;5016795;28;20247;-68
2023/02/02 07:47:06;;;;;;;3.33;1.50;;;8.30;99.90;;;;;;5015465;28;20198;-68
2023/02/02 07:49:32;;;;;;;5.80;2.42;;;8.20;99.90;;;;;;5019291;28;20179;-69
2023/02/02 07:51:58;;;;;;;2.63;1.90;;;8.30;99.90;;;;;;5016578;28;20254;-68
2023/02/02 07:54:23;;;;;;;2.63;1.40;;;7.60;99.90;;;;;;5011004;28;20183;-67
2023/02/02 07:56:49;;;;;;;3.60;1.80;;;8.20;99.90;;;;;;5023367;28;20210;-65
2023/02/02 07:59:14;;;;;;;1.60;1.20;;;8.20;99.90;;;;;;5016930;28;20861;-66
2023/02/02 08:01:40;;;;;;;2.93;1.97;;;8.10;99.90;;;;;;5021095;28;20679;-67
2023/02/02 08:04:06;;;;;;;3.90;2.37;;;8.30;99.90;;;;;;5015561;28;20191;-68
2023/02/02 08:06:37;;;;;;;3.53;1.80;;;8.10;99.90;;;;;;5020959;28;20626;-67
2023/02/02 08:09:06;;;;;;;2.83;1.85;;;8.40;99.90;;;;;;5018596;28;20183;-67
2023/02/02 08:11:34;;;;;;;2.90;1.60;;;8.70;99.90;;;;;;5003079;28;20545;-67
2023/02/02 08:14:01;;;;;;;5.32;2.17;;;8.20;99.90;;;;;;5020230;28;20264;-67
2023/02/02 08:16:29;;;;;;;4.25;1.80;;;8.30;99.90;;;;;;5001255;28;20198;-69
2023/02/02 08:18:55;;;;;;;2.95;1.77;;;8.20;99.90;;;;;;5007565;28;20240;-68
2023/02/02 08:21:21;;;;;;;3.40;1.73;;;8.40;99.90;;;;;;5015529;28;20252;-67
2023/02/02 08:23:47;;;;;;;4.40;2.05;;;8.30;99.90;;;;;;5029212;28;20189;-68
2023/02/02 08:26:17;;;;;;;6.03;2.03;;;8.60;99.90;;;;;;5018645;28;20687;-68
2023/02/02 08:28:45;;;;;;;3.10;1.88;;;8.70;99.90;;;;;;5024093;28;20226;-68
2023/02/02 08:31:40;;;;;;;4.70;1.75;;;8.90;99.90;;;;;;5021908;28;20277;-67
2023/02/02 08:34:06;;;;;;;2.88;2.00;;;8.50;99.90;;;;;;5019117;28;20206;-68
2023/02/02 08:36:34;;;;;;;4.30;2.00;;;8.70;99.90;;;;;;5001107;28;20601;-67
2023/02/02 08:39:09;;;;;;;3.88;1.75;;;8.50;99.90;;;;;;5016314;28;20464;-66
2023/02/02 08:41:38;;;;;;;4.55;2.42;;;8.40;99.90;;;;;;5020014;28;20174;-70
2023/02/02 08:44:08;;;;;;;4.30;2.60;;;8.40;99.90;;;;;;5017869;28;20704;-66
2023/02/02 08:46:34;;;;;;;2.75;1.75;;;8.70;99.90;;;;;;5016665;28;20214;-65
2023/02/02 08:48:59;;;;;;;3.03;1.73;;;8.50;99.90;;;;;;5017690;28;20525;-65
2023/02/02 08:51:25;;;;;;;4.50;2.13;;;9.00;99.90;;;;;;5017286;28;20186;-66
2023/02/02 08:53:51;;;;;;;3.00;2.70;;;8.50;99.90;;;;;;5014664;28;20699;-65
2023/02/02 08:56:21;;;;;;;3.07;1.90;;;8.70;99.90;;;;;;5018120;28;20230;-67
2023/02/02 08:59:03;;;;;;;2.17;1.83;;;8.60;99.90;;;;;;5014842;28;20319;-67
2023/02/02 09:01:31;;;;;;;5.45;3.55;;;8.90;99.90;;;;;;4996308;28;20674;-67
2023/02/02 09:04:03;;;;;;;5.53;2.50;;;8.80;99.90;;;;;;5021337;28;20278;-65
2023/02/02 09:06:32;;;;;;;2.88;1.80;;;8.50;99.90;;;;;;4994986;28;20238;-66
2023/02/02 09:08:57;;;;;;;3.05;1.70;;;9.20;99.90;;;;;;5018738;28;20178;-68
2023/02/02 09:11:23;;;;;;;1.90;1.70;;;8.80;99.90;;;;;;5016941;28;20183;-67
2023/02/02 09:13:53;;;;;;;2.10;1.60;;;9.00;99.90;;;;;;5025588;28;20201;-68
2023/02/02 09:16:20;;;;;;;2.85;1.60;;;9.00;99.90;;;;;;5018228;28;20245;-67
2023/02/02 09:18:46;;;;;;;3.55;2.70;;;8.70;99.90;;;;;;5010493;28;20607;-67
2023/02/02 09:21:14;;;;;;;2.60;1.97;;;9.40;99.90;;;;;;5011662;28;20284;-68
2023/02/02 09:23:42;;;;;;;3.55;2.08;;;8.80;99.90;;;;;;5019881;28;20942;-69
2023/02/02 09:26:08;;;;;;;4.22;2.25;;;9.00;99.90;;;;;;5014186;28;20290;-69
2023/02/02 09:28:33;;;;;;;1.98;1.55;;;8.80;99.90;;;;;;5015216;28;20584;-68
2023/02/02 09:31:02;;;;;;;10.33;2.57;;;8.70;99.90;;;;;;5013159;28;20235;-68
2023/02/02 09:33:28;;;;;;;3.35;1.73;;;8.80;99.90;;;;;;5025193;28;20289;-69
2023/02/02 09:35:53;;;;;;;5.70;2.13;;;9.00;99.90;;;;;;5023845;28;20599;-69
2023/02/02 09:38:19;;;;;;;4.57;2.30;;;8.80;99.90;;;;;;4998186;28;20715;-70
2023/02/02 09:40:44;;;;;;;4.33;2.00;;;8.80;99.90;;;;;;5022925;28;20694;-67
2023/02/02 09:43:43;;;;;;;4.00;2.33;;;8.90;99.90;;;;;;4997490;28;20493;-68
2023/02/02 09:46:27;;;;;;;5.97;2.40;;;9.00;99.90;;;;;;5015364;28;20219;-68
2023/02/02 09:49:00;;;;;;;4.00;2.20;;;9.20;99.90;;;;;;5022218;28;20174;-68
2023/02/02 09:51:35;;;;;;;3.45;2.20;;;9.30;99.90;;;;;;5016885;28;20190;-68
2023/02/02 09:54:33;;;;;;;5.00;2.55;;;9.00;99.90;;;;;;5003286;28;20230;-67
2023/02/02 09:57:03;;;;;;;5.75;2.33;;;9.00;99.90;;;;;;5019257;28;20217;-69
2023/02/02 09:59:34;;;;;;;6.28;2.97;;;8.60;99.90;;;;;;5020620;28;20349;-69
2023/02/02 10:02:21;;;;;;;5.03;2.38;;;8.80;99.90;;;;;;5016493;28;20193;-68
2023/02/02 10:04:51;;;;;;;6.45;3.20;;;9.00;99.90;;;;;;5022128;28;20749;-68
2023/02/02 10:07:29;;;;;;;4.03;2.55;;;8.80;99.90;;;;;;5021550;28;20214;-67
2023/02/02 10:10:13;;;;;;;3.85;2.70;;;8.80;99.90;;;;;;5013165;28;20232;-67
2023/02/02 10:13:02;;;;;;;2.53;2.33;;;8.80;99.90;;;;;;5015610;28;20710;-67
2023/02/02 10:15:48;;;;;;;4.72;2.20;;;8.70;99.90;;;;;;5016141;28;21416;-67
2023/02/02 10:18:47;;;;;;;5.80;3.00;;;8.80;99.90;;;;;;5022136;28;20183;-66
2023/02/02 10:21:27;;;;;;;6.90;2.55;;;8.70;99.90;;;;;;5008578;28;20194;-65
2023/02/02 10:23:53;;;;;;;6.00;2.40;;;8.80;99.90;;;;;;5021608;28;20548;-67
2023/02/02 10:26:30;;;;;;;4.47;2.83;;;8.50;99.90;;;;;;5025400;28;20214;-67
2023/02/02 10:29:14;;;;;;;4.30;2.65;;;8.70;99.90;;;;;;5020959;28;20440;-63
2023/02/02 10:31:46;;;;;;;4.20;2.38;;;8.70;99.90;;;;;;5011040;28;20182;-64
2023/02/02 10:34:20;;;;;;;4.90;2.95;;;8.90;99.90;;;;;;5023000;28;20192;-63
2023/02/02 10:36:52;;;;;;;4.95;2.03;;;9.10;99.90;;;;;;5021933;28;20213;-64
2023/02/02 10:39:23;;;;;;;9.55;2.70;;;9.30;99.90;;;;;;5018622;28;20187;-63
2023/02/02 10:41:59;;;;;;;3.38;2.63;;;9.10;99.90;;;;;;5021298;28;20228;-63
2023/02/02 10:44:49;;;;;;;5.82;2.10;;;8.90;99.90;;;;;;5021590;28;20191;-64
2023/02/02 10:47:33;;;;;;;4.35;2.30;;;8.90;99.90;;;;;;4997824;28;20243;-63
2023/02/02 10:50:03;;;;;;;4.03;2.38;;;9.10;99.90;;;;;;5017706;28;20187;-64
2023/02/02 10:52:32;;;;;;;4.55;2.03;;;9.30;99.90;;;;;;5016729;28;20695;-64
2023/02/02 10:55:12;;;;;;;5.22;2.83;;;9.20;99.90;;;;;;5012566;28;20226;-63
2023/02/02 10:57:50;;;;;;;2.22;1.80;;;8.80;99.90;;;;;;5029775;28;20252;-64
2023/02/02 11:00:21;;;;;;;2.78;1.77;;;8.50;99.90;;;;;;5016812;28;20609;-65
2023/02/02 11:02:47;;;;;;;5.78;2.15;;;9.00;99.90;;;;;;5009897;28;20676;-64
2023/02/02 11:08:36;;;;;;;3.47;1.95;;;8.50;99.90;;;;;;5013490;28;20198;-65
2023/02/02 11:11:26;;;;;;;2.80;1.83;;;9.00;99.90;;;;;;5016943;28;20175;-63
2023/02/02 11:14:17;;;;;;;4.30;2.40;;;9.00;99.90;;;;;;4998870;28;20214;-64
2023/02/02 11:16:44;;;;;;;4.40;2.05;;;8.80;99.90;;;;;;5015898;28;20207;-64
2023/02/02 11:19:18;;;;;;;4.22;2.20;;;8.80;99.90;;;;;;5012610;28;20206;-64
2023/02/02 11:21:52;;;;;;;4.30;2.17;;;9.10;99.90;;;;;;5021228;28;20190;-64
2023/02/02 11:24:18;;;;;;;2.67;2.20;;;8.80;99.90;;;;;;5019552;28;20273;-64
2023/02/02 11:26:52;;;;;;;3.80;2.20;;;9.00;99.90;;;;;;5018396;28;20642;-63
2023/02/02 11:29:25;;;;;;;2.17;1.77;;;8.70;99.90;;;;;;5026817;28;20415;-65
2023/02/02 11:31:51;;;;;;;5.45;2.30;;;9.00;99.90;;;;;;5017614;28;20178;-64
2023/02/02 11:34:22;;;;;;;3.40;1.60;;;9.20;99.90;;;;;;5022940;28;20209;-65
2023/02/02 11:37:13;;;;;;;4.70;2.83;;;9.00;99.90;;;;;;5018692;28;20214;-64
2023/02/02 11:39:43;;;;;;;2.80;1.75;;;9.00;99.90;;;;;;5024292;28;20404;-64
2023/02/02 11:42:23;;;;;;;2.92;2.20;;;9.30;99.90;;;;;;5020230;28;20182;-64
2023/02/02 11:44:55;;;;;;;4.10;2.33;;;9.10;99.90;;;;;;5011271;28;20193;-64
2023/02/02 11:47:28;;;;;;;3.40;1.70;;;9.50;99.90;;;;;;5014010;28;20208;-64
2023/02/02 11:49:55;;;;;;;6.10;2.30;;;9.10;99.90;;;;;;5015224;28;20195;-64
2023/02/02 11:52:23;;;;;;;3.45;1.80;;;9.10;99.90;;;;;;5014613;28;20183;-64
2023/02/02 11:55:00;;;;;;;4.25;1.90;;;8.60;99.90;;;;;;5021482;28;20216;-64
2023/02/02 11:57:28;;;;;;;3.80;2.65;;;9.10;99.90;;;;;;5013606;28;20217;-64
2023/02/02 12:00:09;;;;;;;5.22;2.85;;;9.00;99.90;;;;;;5000573;28;20261;-67
2023/02/02 12:02:35;;;;;;;7.65;3.25;;;9.20;99.90;;;;;;5016632;28;20201;-67
2023/02/02 12:05:18;;;;;;;3.80;2.20;;;9.00;99.90;;;;;;4996673;28;20759;-67
2023/02/02 12:07:45;;;;;;;5.70;2.40;;;8.90;99.90;;;;;;5022132;28;20190;-68
2023/02/02 12:10:19;;;;;;;5.18;2.58;;;9.10;99.90;;;;;;5020872;28;20793;-70
2023/02/02 12:13:22;;;;;;;3.10;1.85;;;9.10;99.90;;;;;;5015413;28;20213;-68
2023/02/02 12:16:09;;;;;;;2.75;2.13;;;9.10;99.90;;;;;;5007204;28;20209;-69
2023/02/02 12:19:01;;;;;;;3.78;2.22;;;9.10;99.90;;;;;;5001899;28;20186;-69
2023/02/02 12:21:58;;;;;;;7.22;2.95;;;9.30;99.90;;;;;;5016425;28;20175;-68
2023/02/02 12:24:41;;;;;;;3.70;2.15;;;9.10;99.90;;;;;;5020463;28;20189;-67
2023/02/02 12:27:51;;;;;;;4.25;2.03;;;9.20;99.90;;;;;;5021083;28;20263;-67
2023/02/02 12:30:22;;;;;;;3.58;1.90;;;9.20;99.90;;;;;;4972859;28;20634;-68
2023/02/02 12:32:56;;;;;;;3.25;1.55;;;9.20;99.90;;;;;;5015962;28;20586;-67
2023/02/02 12:36:00;;;;;;;2.83;2.03;;;9.00;99.90;;;;;;5014048;28;20182;-71
2023/02/02 12:38:54;;;;;;;5.10;1.92;;;9.30;99.90;;;;;;4998516;28;20186;-70
2023/02/02 12:41:25;;;;;;;3.63;2.10;;;9.10;99.90;;;;;;4995766;28;20182;-67
2023/02/02 12:44:30;;;;;;;2.85;1.60;;;9.10;99.90;;;;;;5023909;28;20607;-68
2023/02/02 12:47:25;;;;;;;3.47;1.80;;;9.10;99.90;;;;;;5022570;28;20313;-69
2023/02/02 12:49:57;;;;;;;2.88;1.63;;;9.20;99.90;;;;;;5016278;28;20178;-68
2023/02/02 12:52:36;;;;;;;6.32;2.15;;;9.00;99.90;;;;;;5021108;28;20317;-68
2023/02/02 12:55:29;;;;;;;2.70;2.13;;;8.90;99.90;;;;;;5018940;28;20239;-68
2023/02/02 12:58:34;;;;;;;5.30;2.00;;;8.60;99.90;;;;;;5017685;28;20249;-67
2023/02/02 13:01:09;;;;;;;4.30;2.50;;;8.50;99.90;;;;;;5019665;28;20182;-70
2023/02/02 13:03:54;;;;;;;4.50;2.33;;;8.60;99.90;;;;;;5017929;28;20179;-68
2023/02/02 13:06:45;;;;;;;4.35;3.20;;;8.40;99.90;;;;;;5022303;28;20310;-69
2023/02/02 13:09:20;;;;;;;2.85;2.10;;;8.40;99.90;;;;;;5015019;28;20622;-69
2023/02/02 13:11:53;;;;;;;2.90;2.10;;;8.20;99.90;;;;;;5021123;28;20201;-66
2023/02/02 13:14:27;;;;;;;4.40;2.35;;;8.60;99.90;;;;;;5022072;28;20190;-66
2023/02/02 13:16:58;;;;;;;7.50;2.13;;;7.90;99.90;;;;;;5018681;28;20206;-67
2023/02/02 13:19:44;;;;;;;3.70;1.92;;;8.50;99.90;;;;;;5001761;28;20193;-67
2023/02/02 13:22:18;;;;;;;6.35;2.78;;;8.20;99.90;;;;;;5018491;28;20663;-69
2023/02/02 13:24:48;;;;;;;4.22;2.83;;;8.90;99.90;;;;;;5015769;28;20206;-66
2023/02/02 13:27:19;;;;;;;8.38;2.30;;;8.30;99.90;;;;;;5016263;28;20199;-66
2023/02/02 13:29:51;;;;;;;2.67;1.60;;;8.60;99.90;;;;;;4995977;28;20178;-67